This is the latest recevied weather packets stored in our database for station/object EA2DXT-10. If no packets are shown the sender has not sent any weather packets the latest 10 day(s).
| Time | Temp. | Humidity | Pressure | Rain* | Wind** | Luminosity | Snow |
|---|---|---|---|---|---|---|---|
| 1777436239 | 12.78° C | 81% | 940.8 hPa | - | - | - | - |
| 1777435338 | 12.78° C | 82% | 943.5 hPa | - | - | - | - |
| 1777435320 | 6.11° C | 81% | 929.4 hPa | - | - | - | - |
| 1777434407 | 12.78° C | 81% | 940.9 hPa | - | - | - | - |
| 1777434390 | 12.78° C | 81% | 944.3 hPa | - | - | - | - |
| 1777434377 | 12.78° C | 81% | 941 hPa | - | - | - | - |
| 1777431632 | 12.78° C | 80% | 942.1 hPa | - | - | - | - |
| 1777428868 | 12.78° C | 79% | 945.4 hPa | - | - | - | - |
| 1777427011 | 12.78° C | 79% | 941.7 hPa | - | - | - | - |
| 1777425199 | 11.11° C | 78% | 939.7 hPa | - | - | - | - |
| 1777422442 | 12.78° C | 76% | 942.8 hPa | - | - | - | - |
| 1777418840 | 12.22° C | 74% | 942.9 hPa | - | - | - | - |
| 1777416154 | 12.22° C | 72% | 947 hPa | - | - | - | - |
| 1777409339 | 13.89° C | 69% | 943.9 hPa | - | - | - | - |
| 1777408438 | 13.89° C | 69% | 943.7 hPa | - | - | - | - |
| 1777407538 | 14.44° C | 69% | 943.6 hPa | - | - | - | - |
| 1777406638 | 14.44° C | 69% | 943.7 hPa | - | - | - | - |
| 1777404837 | 14.44° C | 69% | 943.5 hPa | - | - | - | - |
| 1777403937 | 14.44° C | 69% | 943.4 hPa | - | - | - | - |
| 1777403037 | 15° C | 69% | 943 hPa | - | - | - | - |
| 1777401237 | 15.56° C | 69% | 943.2 hPa | - | - | - | - |
| 1777397636 | 17.22° C | 69% | 943.3 hPa | - | - | - | - |
| 1777396811 | 17.78° C | 69% | 943.3 hPa | - | - | - | - |
| 1777393167 | 23.33° C | 69% | 943.2 hPa | - | - | - | - |
| 1777391335 | 25.56° C | 70% | 943.3 hPa | - | - | - | - |
* Rain since midnight (hover to see other rain measurements)
** Current wind speed in m/s (hover to see current wind gust speed)